Time;durP1;ratioP1;P1;durP2;ratioP2;P2;SDS_P1;SDS_P2;PMS_P1;PMS_P2;Temp;Humidity;BMP_temperature;BMP_pressure;BME280_temperature;BME280_humidity;BME280_pressure;Samples;Min_cycle;Max_cycle;Signal;HPM_P1;HPM_P2
2021/12/19 00:03:32;;;;;;;;;;;;;;;;;;10209470;29;20056;-78
2021/12/19 00:08:48;;;;;;;15.40;5.07;;;;;;;;;;10203469;29;19923;-79
2021/12/19 00:13:53;;;;;;;11.30;3.90;;;;;;;;;;10249364;28;20070;-78
2021/12/19 00:18:57;;;;;;;29.33;8.40;;;;;;;;;;10217401;29;20122;-77
2021/12/19 00:24:00;;;;;;;7.50;2.40;;;;;;;;;;10203416;29;20051;-78
2021/12/19 00:29:06;;;;;;;18.08;4.57;;;;;;;;;;10204536;29;20572;-78
2021/12/19 00:34:09;;;;;;;11.43;3.60;;;;;;;;;;10207114;29;20130;-77
2021/12/19 00:39:12;;;;;;;26.23;7.60;;;;;;;;;;10182868;29;20494;-77
2021/12/19 00:44:22;;;;;;;10.70;4.70;;;;;;;;;;10187662;29;20146;-78
2021/12/19 00:49:26;;;;;;;14.47;3.93;;;;;;;;;;10189191;29;20041;-77
2021/12/19 00:54:29;;;;;;;7.30;2.58;;;;;;;;;;10193816;29;20054;-78
2021/12/19 00:59:35;;;;;;;4.90;2.08;;;;;;;;;;10209756;29;20036;-77
2021/12/19 01:04:38;;;;;;;15.07;4.87;;;;;;;;;;10206651;29;20054;-78
2021/12/19 01:09:41;;;;;;;20.83;6.07;;;;;;;;;;10230570;29;20035;-77
2021/12/19 01:14:46;;;;;;;9.85;4.93;;;;;;;;;;10229859;29;20043;-78
2021/12/19 01:19:50;;;;;;;14.83;4.77;;;;;;;;;;10216491;29;20028;-79
2021/12/19 01:24:53;;;;;;;13.03;4.50;;;;;;;;;;10201853;29;20479;-78
2021/12/19 01:29:58;;;;;;;18.93;4.40;;;;;;;;;;10198449;29;21149;-78
2021/12/19 01:35:01;;;;;;;17.93;5.27;;;;;;;;;;10200445;29;20251;-77
2021/12/19 01:40:07;;;;;;;19.23;6.43;;;;;;;;;;10208382;29;20111;-77
2021/12/19 01:45:13;;;;;;;13.37;4.63;;;;;;;;;;10212392;29;20066;-78
2021/12/19 01:50:17;;;;;;;3.77;2.20;;;;;;;;;;10204015;29;20484;-78
2021/12/19 01:55:20;;;;;;;15.80;4.53;;;;;;;;;;10251546;28;20031;-78
2021/12/19 02:00:26;;;;;;;10.70;2.60;;;;;;;;;;10231175;28;20183;-79
2021/12/19 02:05:29;;;;;;;11.73;2.17;;;;;;;;;;10228593;29;20297;-77
2021/12/19 02:10:33;;;;;;;12.30;4.13;;;;;;;;;;10218377;29;20123;-78
2021/12/19 02:15:39;;;;;;;7.95;3.08;;;;;;;;;;10226439;29;20075;-79
2021/12/19 02:20:47;;;;;;;9.00;3.07;;;;;;;;;;10205461;29;20063;-79
2021/12/19 02:25:50;;;;;;;11.13;3.70;;;;;;;;;;10218810;29;20042;-79
2021/12/19 02:30:54;;;;;;;9.17;3.23;;;;;;;;;;10221093;29;20054;-79
2021/12/19 02:36:06;;;;;;;14.63;3.30;;;;;;;;;;10219653;29;20295;-78
2021/12/19 02:51:53;;;;;;;4.20;2.13;;;;;;;;;;10234166;29;20040;-78
2021/12/19 02:56:58;;;;;;;24.10;6.53;;;;;;;;;;10197594;29;20067;-78
2021/12/19 03:02:01;;;;;;;12.38;3.47;;;;;;;;;;10201043;29;20115;-79
2021/12/19 03:07:06;;;;;;;16.73;4.47;;;;;;;;;;10190017;29;20060;-78
2021/12/19 03:12:24;;;;;;;10.30;2.37;;;;;;;;;;10192911;29;20040;-78
2021/12/19 03:23:03;;;;;;;6.67;2.30;;;;;;;;;;10198767;29;20139;-79
2021/12/19 03:28:08;;;;;;;10.67;3.63;;;;;;;;;;10197721;29;20417;-78
2021/12/19 03:33:12;;;;;;;19.30;6.20;;;;;;;;;;10210885;29;20079;-77
2021/12/19 03:38:17;;;;;;;9.73;3.85;;;;;;;;;;10225463;29;20047;-77
2021/12/19 03:43:22;;;;;;;12.27;3.93;;;;;;;;;;10210626;29;20051;-78
2021/12/19 03:48:25;;;;;;;19.17;5.07;;;;;;;;;;10195565;29;20051;-79
2021/12/19 03:53:30;;;;;;;21.10;5.70;;;;;;;;;;10196255;29;20126;-78
2021/12/19 03:58:33;;;;;;;12.33;3.50;;;;;;;;;;10203252;29;20058;-79
2021/12/19 04:03:36;;;;;;;8.77;3.40;;;;;;;;;;10189942;29;20456;-79
2021/12/19 04:08:41;;;;;;;15.50;4.80;;;;;;;;;;10195628;29;20046;-78
2021/12/19 04:13:44;;;;;;;8.23;2.33;;;;;;;;;;10219801;29;20051;-78
2021/12/19 04:18:47;;;;;;;32.35;6.53;;;;;;;;;;10193387;29;20050;-78
2021/12/19 04:23:52;;;;;;;12.17;3.17;;;;;;;;;;10205127;29;20036;-79
2021/12/19 04:28:55;;;;;;;18.47;6.30;;;;;;;;;;10200795;29;20079;-78
2021/12/19 04:33:58;;;;;;;26.57;7.20;;;;;;;;;;10200024;29;20445;-79
2021/12/19 04:44:45;;;;;;;14.52;4.28;;;;;;;;;;10184278;29;20094;-77
2021/12/19 04:55:36;;;;;;;5.87;2.73;;;;;;;;;;10191470;29;20063;-78
2021/12/19 05:00:47;;;;;;;10.47;3.93;;;;;;;;;;10197619;29;20043;-79
2021/12/19 05:06:00;;;;;;;26.67;8.13;;;;;;;;;;10194646;29;20139;-78
2021/12/19 05:16:25;;;;;;;20.30;4.37;;;;;;;;;;10207052;29;20044;-79
2021/12/19 05:21:29;;;;;;;23.93;7.13;;;;;;;;;;10196785;29;20043;-79
2021/12/19 05:26:33;;;;;;;18.98;4.68;;;;;;;;;;10194051;29;20081;-79
2021/12/19 05:31:37;;;;;;;8.97;2.93;;;;;;;;;;10171313;29;20047;-78
2021/12/19 05:47:23;;;;;;;25.53;6.60;;;;;;;;;;10194415;29;20123;-79
2021/12/19 05:52:27;;;;;;;;;;;;;;;;;;10202865;29;20043;-78
2021/12/19 05:57:32;;;;;;;15.77;4.40;;;;;;;;;;10197967;29;19923;-79
2021/12/19 06:02:34;;;;;;;;;;;;;;;;;;10194584;29;20531;-78
2021/12/19 06:07:37;;;;;;;38.63;9.30;;;;;;;;;;10205562;29;19933;-78
2021/12/19 06:12:42;;;;;;;24.90;7.23;;;;;;;;;;10195200;29;20108;-78
2021/12/19 06:17:45;;;;;;;32.27;8.30;;;;;;;;;;10183804;29;20052;-79
2021/12/19 06:22:48;;;;;;;38.43;10.63;;;;;;;;;;10200211;29;20032;-79
2021/12/19 06:27:54;;;;;;;22.30;6.13;;;;;;;;;;10200955;29;20039;-77
2021/12/19 06:32:56;;;;;;;24.63;6.77;;;;;;;;;;10190203;29;20424;-77
2021/12/19 06:38:00;;;;;;;7.40;3.83;;;;;;;;;;10190595;29;20076;-78
2021/12/19 06:43:04;;;;;;;16.97;3.40;;;;;;;;;;10202292;29;20036;-76
2021/12/19 06:48:06;;;;;;;;;;;;;;;;;;10192692;29;20127;-77
2021/12/19 06:53:09;;;;;;;19.53;6.20;;;;;;;;;;10191719;29;20435;-77
2021/12/19 06:58:14;;;;;;;16.47;4.87;;;;;;;;;;10200606;29;20040;-77
2021/12/19 07:03:16;;;;;;;;;;;;;;;;;;10186038;29;20040;-77
2021/12/19 07:08:21;;;;;;;7.83;3.43;;;;;;;;;;10226835;29;19951;-76
2021/12/19 07:13:25;;;;;;;3.73;1.93;;;;;;;;;;10208849;29;20039;-77
2021/12/19 07:18:28;;;;;;;13.43;4.83;;;;;;;;;;10199185;29;20050;-76
2021/12/19 07:23:32;;;;;;;6.50;3.10;;;;;;;;;;10202301;29;20047;-78
2021/12/19 07:28:36;;;;;;;14.60;4.43;;;;;;;;;;10197495;29;20050;-78
2021/12/19 07:33:39;;;;;;;;;;;;;;;;;;10192409;29;20388;-77
2021/12/19 07:38:52;;;;;;;14.60;4.67;;;;;;;;;;10200056;29;19946;-77
2021/12/19 07:43:57;;;;;;;13.33;4.97;;;;;;;;;;10195542;29;20059;-79
2021/12/19 07:49:02;;;;;;;22.07;5.57;;;;;;;;;;10220292;23;20051;-72
2021/12/19 07:54:05;;;;;;;7.60;2.90;;;;;;;;;;10214856;28;20059;-74
2021/12/19 07:59:09;;;;;;;25.67;7.23;;;;;;;;;;10239350;28;20047;-74
2021/12/19 08:04:12;;;;;;;;;;;;;;;;;;10238681;28;20039;-74
2021/12/19 08:09:23;;;;;;;23.20;7.97;;;;;;;;;;10244424;28;19922;-72
2021/12/19 08:14:27;;;;;;;11.23;3.70;;;;;;;;;;10257828;28;20468;-74
2021/12/19 08:19:30;;;;;;;14.20;5.33;;;;;;;;;;10242149;28;20590;-73
2021/12/19 08:24:34;;;;;;;8.53;3.93;;;;;;;;;;10223336;28;20130;-73
2021/12/19 08:29:38;;;;;;;7.50;3.57;;;;;;;;;;10230979;28;20102;-73
2021/12/19 08:34:41;;;;;;;11.93;4.23;;;;;;;;;;10237648;28;20035;-74
2021/12/19 08:39:44;;;;;;;7.20;2.23;;;;;;;;;;10238155;28;20062;-72
2021/12/19 08:44:49;;;;;;;11.23;5.60;;;;;;;;;;10218465;28;20050;-73
2021/12/19 08:49:52;;;;;;;13.40;6.23;;;;;;;;;;10241092;28;20102;-73
2021/12/19 08:54:55;;;;;;;7.00;3.10;;;;;;;;;;10241443;28;20132;-73
2021/12/19 08:59:59;;;;;;;13.27;4.23;;;;;;;;;;10220743;28;20054;-74
2021/12/19 09:05:02;;;;;;;7.00;2.53;;;;;;;;;;10239860;28;20528;-72
2021/12/19 09:10:06;;;;;;;8.73;3.33;;;;;;;;;;10238170;29;20047;-73
2021/12/19 09:15:11;;;;;;;5.43;2.28;;;;;;;;;;10239119;28;20042;-72
2021/12/19 09:20:15;;;;;;;6.23;2.30;;;;;;;;;;10240470;29;20040;-73
2021/12/19 09:25:18;;;;;;;8.20;3.63;;;;;;;;;;10232621;28;20047;-73
2021/12/19 09:30:24;;;;;;;13.55;4.82;;;;;;;;;;10234953;29;20130;-71
2021/12/19 09:35:28;;;;;;;2.57;1.80;;;;;;;;;;10222779;29;20055;-72
2021/12/19 09:40:35;;;;;;;8.50;3.13;;;;;;;;;;10234622;29;20419;-75
2021/12/19 09:45:39;;;;;;;13.87;3.97;;;;;;;;;;10221193;28;20039;-75
2021/12/19 09:50:42;;;;;;;;;;;;;;;;;;10247954;28;20090;-72
2021/12/19 09:55:45;;;;;;;4.77;1.93;;;;;;;;;;10226538;28;20406;-73
2021/12/19 10:00:53;;;;;;;2.87;1.90;;;;;;;;;;10227194;28;20435;-73
2021/12/19 10:06:10;;;;;;;14.33;5.10;;;;;;;;;;10245282;28;20043;-73
2021/12/19 10:11:30;;;;;;;11.43;3.57;;;;;;;;;;10243746;28;20098;-73
2021/12/19 10:16:34;;;;;;;11.37;2.83;;;;;;;;;;10228498;28;20503;-73
2021/12/19 10:21:37;;;;;;;14.20;4.77;;;;;;;;;;10254767;28;20117;-73
2021/12/19 10:26:42;;;;;;;5.50;2.53;;;;;;;;;;10248550;29;20071;-72
2021/12/19 10:31:44;;;;;;;;;;;;;;;;;;10227792;28;20047;-73
2021/12/19 10:36:49;;;;;;;8.63;3.13;;;;;;;;;;10244054;28;19937;-71
2021/12/19 10:41:59;;;;;;;10.37;4.53;;;;;;;;;;10228095;28;20063;-72
2021/12/19 10:47:17;;;;;;;8.15;3.75;;;;;;;;;;10244643;28;20126;-74
2021/12/19 10:52:34;;;;;;;12.82;5.43;;;;;;;;;;10250581;28;20725;-73
2021/12/19 10:57:40;;;;;;;11.57;5.55;;;;;;;;;;10246012;28;20046;-74
2021/12/19 11:02:44;;;;;;;15.40;6.72;;;;;;;;;;10246276;29;20031;-74
2021/12/19 11:08:00;;;;;;;12.73;5.95;;;;;;;;;;10238096;29;20539;-74
2021/12/19 11:13:08;;;;;;;13.88;7.13;;;;;;;;;;10227866;29;20366;-71
2021/12/19 11:18:11;;;;;;;16.45;8.32;;;;;;;;;;10227190;29;20158;-72
2021/12/19 11:23:16;;;;;;;14.75;8.82;;;;;;;;;;10244162;29;20139;-70
2021/12/19 11:28:19;;;;;;;14.80;7.85;;;;;;;;;;10241260;29;20043;-74
2021/12/19 11:33:32;;;;;;;15.88;8.60;;;;;;;;;;10243623;28;20071;-72
2021/12/19 11:38:37;;;;;;;13.98;7.63;;;;;;;;;;10228098;28;20563;-74
2021/12/19 11:43:42;;;;;;;15.70;8.18;;;;;;;;;;10241642;29;20043;-71
2021/12/19 11:48:46;;;;;;;14.80;8.20;;;;;;;;;;10242471;28;20099;-71
2021/12/19 11:53:50;;;;;;;17.05;9.07;;;;;;;;;;10223354;28;20397;-71
2021/12/19 11:58:55;;;;;;;15.80;8.73;;;;;;;;;;10241281;28;20046;-71
2021/12/19 12:04:00;;;;;;;16.00;7.63;;;;;;;;;;10220469;28;20049;-72
2021/12/19 12:09:25;;;;;;;17.95;9.35;;;;;;;;;;10242811;28;20414;-72
2021/12/19 12:14:34;;;;;;;16.98;9.23;;;;;;;;;;10227397;29;20440;-71
2021/12/19 12:19:39;;;;;;;15.88;8.75;;;;;;;;;;10250751;28;20427;-72
2021/12/19 12:25:04;;;;;;;18.08;9.32;;;;;;;;;;10216692;28;20054;-72
2021/12/19 12:30:10;;;;;;;15.70;7.78;;;;;;;;;;10221379;29;20062;-72
2021/12/19 12:35:13;;;;;;;13.73;6.45;;;;;;;;;;10242433;29;20534;-70
2021/12/19 12:40:22;;;;;;;19.17;9.52;;;;;;;;;;10223495;29;20050;-71
2021/12/19 12:45:27;;;;;;;16.73;9.00;;;;;;;;;;10222348;29;20122;-72
2021/12/19 12:50:30;;;;;;;13.75;7.40;;;;;;;;;;10224103;29;20093;-71
2021/12/19 12:55:33;;;;;;;17.02;8.75;;;;;;;;;;10241224;28;20062;-71
2021/12/19 13:00:37;;;;;;;16.30;9.07;;;;;;;;;;10223023;29;20114;-73
2021/12/19 13:05:48;;;;;;;13.27;6.45;;;;;;;;;;10254470;28;20035;-71
2021/12/19 13:10:52;;;;;;;16.80;8.65;;;;;;;;;;10260832;28;20035;-71
2021/12/19 13:16:05;;;;;;;15.90;8.30;;;;;;;;;;10222186;28;20032;-73
2021/12/19 13:21:07;;;;;;;14.07;7.35;;;;;;;;;;10244204;28;20041;-73
2021/12/19 13:26:10;;;;;;;17.57;7.90;;;;;;;;;;10245362;28;20511;-73
2021/12/19 13:31:23;;;;;;;16.73;7.17;;;;;;;;;;10243858;28;20081;-72
2021/12/19 13:36:26;;;;;;;18.63;7.35;;;;;;;;;;10227688;28;20106;-71
2021/12/19 13:41:29;;;;;;;15.73;6.53;;;;;;;;;;10228167;28;20046;-72
2021/12/19 13:46:33;;;;;;;19.35;7.40;;;;;;;;;;10230026;28;20035;-71
2021/12/19 13:51:37;;;;;;;17.15;6.43;;;;;;;;;;10232832;28;20043;-72
2021/12/19 13:56:40;;;;;;;14.48;5.88;;;;;;;;;;10230092;28;20067;-71
2021/12/19 14:01:45;;;;;;;13.80;4.88;;;;;;;;;;10245658;28;20047;-70
2021/12/19 14:06:49;;;;;;;5.65;2.70;;;;;;;;;;10228366;28;20126;-71
2021/12/19 14:11:56;;;;;;;14.13;5.30;;;;;;;;;;10254135;28;20042;-71
2021/12/19 14:17:02;;;;;;;9.45;3.05;;;;;;;;;;10244682;28;20047;-70
2021/12/19 14:22:13;;;;;;;8.05;3.17;;;;;;;;;;10246366;28;20043;-72
2021/12/19 14:27:19;;;;;;;10.53;4.20;;;;;;;;;;10241531;28;20070;-72
2021/12/19 14:32:24;;;;;;;20.97;6.23;;;;;;;;;;10245474;28;20031;-71
2021/12/19 14:37:29;;;;;;;10.23;3.90;;;;;;;;;;10232031;28;20035;-70
2021/12/19 14:42:39;;;;;;;5.67;2.27;;;;;;;;;;10243347;29;20109;-71
2021/12/19 14:47:44;;;;;;;12.37;4.03;;;;;;;;;;10244464;28;20130;-72
2021/12/19 14:53:01;;;;;;;7.33;2.87;;;;;;;;;;10243507;29;20043;-72
2021/12/19 14:58:05;;;;;;;12.27;3.13;;;;;;;;;;10244063;29;20039;-72
2021/12/19 15:03:10;;;;;;;10.95;4.53;;;;;;;;;;10226529;29;20416;-71
2021/12/19 15:08:16;;;;;;;11.63;3.43;;;;;;;;;;10244367;28;20043;-71
2021/12/19 15:13:20;;;;;;;10.40;4.07;;;;;;;;;;10225581;29;20102;-71
2021/12/19 15:18:25;;;;;;;7.27;3.13;;;;;;;;;;10244234;28;20505;-69
2021/12/19 15:23:28;;;;;;;12.20;4.20;;;;;;;;;;10230953;28;20312;-71
2021/12/19 15:28:32;;;;;;;4.35;1.83;;;;;;;;;;10239587;28;20142;-71
2021/12/19 15:33:37;;;;;;;2.78;1.45;;;;;;;;;;10251534;28;20035;-72
2021/12/19 15:38:40;;;;;;;13.43;4.60;;;;;;;;;;10226017;28;20206;-71
2021/12/19 15:43:44;;;;;;;7.13;3.25;;;;;;;;;;10239708;28;20039;-71
2021/12/19 15:48:48;;;;;;;14.93;4.43;;;;;;;;;;10231786;28;20039;-71
2021/12/19 15:53:52;;;;;;;5.03;2.63;;;;;;;;;;10236123;28;20051;-73
2021/12/19 15:58:55;;;;;;;8.68;3.53;;;;;;;;;;10223588;29;20075;-72
2021/12/19 16:04:00;;;;;;;12.48;5.38;;;;;;;;;;10221093;29;20051;-72
2021/12/19 16:09:04;;;;;;;9.57;3.13;;;;;;;;;;10234090;28;20134;-71
2021/12/19 16:14:08;;;;;;;9.68;3.92;;;;;;;;;;10255404;23;20059;-69
2021/12/19 16:19:13;;;;;;;12.30;4.23;;;;;;;;;;10285361;28;20045;-68
2021/12/19 16:24:16;;;;;;;17.70;4.87;;;;;;;;;;10264378;28;20531;-68
2021/12/19 16:29:19;;;;;;;5.23;2.23;;;;;;;;;;10268205;28;20297;-69
2021/12/19 16:34:23;;;;;;;12.13;4.93;;;;;;;;;;10273276;28;20041;-70
2021/12/19 16:40:01;;;;;;;12.17;3.70;;;;;;;;;;10275867;28;20498;-71
2021/12/19 16:45:04;;;;;;;9.23;2.53;;;;;;;;;;10272505;28;20035;-69
2021/12/19 16:50:09;;;;;;;9.82;3.33;;;;;;;;;;10267560;28;20039;-71
2021/12/19 16:55:12;;;;;;;2.13;0.80;;;;;;;;;;10279563;28;20065;-69
2021/12/19 17:00:18;;;;;;;9.20;2.97;;;;;;;;;;10279291;28;20511;-70
2021/12/19 17:05:22;;;;;;;7.67;3.27;;;;;;;;;;10269192;28;20081;-71
2021/12/19 17:10:25;;;;;;;;;;;;;;;;;;10254794;28;20090;-71
2021/12/19 17:15:30;;;;;;;4.93;2.57;;;;;;;;;;10280238;28;20373;-70
2021/12/19 17:20:40;;;;;;;5.53;2.30;;;;;;;;;;10276731;28;20126;-69
2021/12/19 17:25:45;;;;;;;5.70;2.27;;;;;;;;;;10267179;28;20032;-70
2021/12/19 17:30:51;;;;;;;9.93;3.80;;;;;;;;;;10259286;28;20039;-70
2021/12/19 17:35:55;;;;;;;5.63;2.40;;;;;;;;;;10268208;28;20044;-70
2021/12/19 17:41:02;;;;;;;8.97;3.23;;;;;;;;;;10256229;28;20061;-69
2021/12/19 17:46:09;;;;;;;5.27;3.17;;;;;;;;;;10277538;28;20039;-71
2021/12/19 17:51:13;;;;;;;13.50;4.90;;;;;;;;;;10281139;28;20050;-66
2021/12/19 17:56:17;;;;;;;15.37;5.67;;;;;;;;;;10250824;28;20130;-69
2021/12/19 18:01:20;;;;;;;12.55;3.03;;;;;;;;;;10251948;28;20077;-71
2021/12/19 18:06:25;;;;;;;2.53;1.47;;;;;;;;;;10275437;28;20043;-70
2021/12/19 18:11:28;;;;;;;6.87;1.73;;;;;;;;;;10282195;28;20074;-69
2021/12/19 18:16:31;;;;;;;2.40;1.50;;;;;;;;;;10266241;28;20087;-70
2021/12/19 18:21:36;;;;;;;15.47;5.43;;;;;;;;;;10280161;28;20042;-69
2021/12/19 18:26:38;;;;;;;;;;;;;;;;;;10259931;28;20492;-67
2021/12/19 18:31:41;;;;;;;9.93;3.03;;;;;;;;;;10263952;28;19933;-69
2021/12/19 18:36:49;;;;;;;18.43;4.70;;;;;;;;;;10277365;28;20039;-70
2021/12/19 18:42:00;;;;;;;9.77;3.87;;;;;;;;;;10279074;28;20046;-69
2021/12/19 18:47:22;;;;;;;5.40;2.40;;;;;;;;;;10271194;28;20035;-70
2021/12/19 18:52:38;;;;;;;5.40;1.60;;;;;;;;;;10263454;28;20043;-72
2021/12/19 18:57:42;;;;;;;8.90;3.80;;;;;;;;;;10281033;28;20126;-71
2021/12/19 19:02:54;;;;;;;10.27;2.90;;;;;;;;;;10268561;28;20042;-70
2021/12/19 19:08:01;;;;;;;2.37;1.10;;;;;;;;;;10264464;28;20519;-71
2021/12/19 19:13:05;;;;;;;12.10;2.70;;;;;;;;;;10276326;28;20531;-69
2021/12/19 19:18:08;;;;;;;11.60;3.30;;;;;;;;;;10278018;28;20049;-69
2021/12/19 19:23:15;;;;;;;1.42;1.00;;;;;;;;;;10275026;28;20307;-71
2021/12/19 19:28:18;;;;;;;9.63;3.33;;;;;;;;;;10257603;28;20035;-69
2021/12/19 19:33:22;;;;;;;12.37;3.07;;;;;;;;;;10270485;28;20126;-72
2021/12/19 19:38:38;;;;;;;12.27;3.77;;;;;;;;;;10243935;28;20313;-70
2021/12/19 19:44:06;;;;;;;5.27;2.30;;;;;;;;;;10273225;28;20557;-72
2021/12/19 19:49:12;;;;;;;3.10;1.90;;;;;;;;;;10263034;28;20524;-72
2021/12/19 19:54:20;;;;;;;12.27;4.30;;;;;;;;;;10281009;28;20042;-73
2021/12/19 19:59:25;;;;;;;12.90;4.80;;;;;;;;;;10263794;28;20122;-73
2021/12/19 20:04:30;;;;;;;8.67;2.73;;;;;;;;;;10263432;28;20471;-72
2021/12/19 20:09:34;;;;;;;4.80;2.15;;;;;;;;;;10272106;28;20039;-74
2021/12/19 20:14:39;;;;;;;5.93;2.47;;;;;;;;;;10285128;28;20043;-73
2021/12/19 20:19:45;;;;;;;10.97;3.40;;;;;;;;;;10282109;28;20081;-73
2021/12/19 20:24:52;;;;;;;3.33;1.63;;;;;;;;;;10254719;28;20061;-72
2021/12/19 20:29:55;;;;;;;5.20;2.13;;;;;;;;;;10266030;28;20047;-73
2021/12/19 20:34:59;;;;;;;9.83;3.73;;;;;;;;;;10258572;28;20046;-70
2021/12/19 20:40:04;;;;;;;9.13;3.70;;;;;;;;;;10272247;28;20042;-73
2021/12/19 20:45:09;;;;;;;12.13;4.33;;;;;;;;;;10267092;28;20044;-71
2021/12/19 20:50:11;;;;;;;;;;;;;;;;;;10270225;28;20129;-70
2021/12/19 20:55:16;;;;;;;13.60;4.37;;;;;;;;;;10269131;28;19929;-70
2021/12/19 21:00:19;;;;;;;6.73;2.13;;;;;;;;;;10247065;28;20125;-70
2021/12/19 21:05:22;;;;;;;10.80;4.57;;;;;;;;;;10277920;28;20050;-71
2021/12/19 21:10:27;;;;;;;8.33;3.07;;;;;;;;;;10271489;28;20035;-70
2021/12/19 21:20:51;;;;;;;8.43;3.20;;;;;;;;;;10235298;28;20058;-71
2021/12/19 21:25:56;;;;;;;11.27;3.53;;;;;;;;;;10275869;28;20057;-70
2021/12/19 21:30:59;;;;;;;5.90;3.00;;;;;;;;;;10266846;28;20038;-71
2021/12/19 21:41:25;;;;;;;6.37;2.33;;;;;;;;;;10257366;28;20411;-71
2021/12/19 21:46:28;;;;;;;5.87;2.47;;;;;;;;;;10261411;28;20150;-70
2021/12/19 21:51:31;;;;;;;13.27;5.07;;;;;;;;;;10277049;28;20062;-71
2021/12/19 21:56:38;;;;;;;9.07;4.43;;;;;;;;;;10255614;28;20301;-70
2021/12/19 22:01:43;;;;;;;14.60;4.50;;;;;;;;;;10272952;28;20041;-68
2021/12/19 22:06:46;;;;;;;12.77;4.10;;;;;;;;;;10279698;28;20031;-72
2021/12/19 22:12:04;;;;;;;11.43;5.00;;;;;;;;;;10271921;28;20046;-70
2021/12/19 22:17:28;;;;;;;9.57;4.13;;;;;;;;;;10281635;28;20093;-70
2021/12/19 22:22:31;;;;;;;6.05;2.70;;;;;;;;;;10295389;28;20074;-73
2021/12/19 22:27:35;;;;;;;14.43;3.53;;;;;;;;;;10309484;28;20039;-73
2021/12/19 22:32:38;;;;;;;4.32;2.55;;;;;;;;;;10268049;28;20066;-74
2021/12/19 22:37:41;;;;;;;12.23;4.07;;;;;;;;;;10272518;28;20480;-73
2021/12/19 22:42:45;;;;;;;16.87;5.40;;;;;;;;;;10288413;28;20107;-73
2021/12/19 22:47:48;;;;;;;6.80;3.13;;;;;;;;;;10291119;28;20106;-73
2021/12/19 22:52:51;;;;;;;7.47;3.03;;;;;;;;;;10319383;28;20057;-73
2021/12/19 22:57:55;;;;;;;5.90;2.80;;;;;;;;;;10315644;28;20105;-74
2021/12/19 23:02:58;;;;;;;;;;;;;;;;;;10309575;28;20031;-73
2021/12/19 23:08:07;;;;;;;10.13;3.50;;;;;;;;;;10300195;28;19994;-73
2021/12/19 23:13:15;;;;;;;14.87;5.00;;;;;;;;;;10277220;28;20526;-73
2021/12/19 23:18:18;;;;;;;9.70;3.90;;;;;;;;;;10293318;28;20066;-73
2021/12/19 23:23:21;;;;;;;14.17;5.40;;;;;;;;;;10303537;28;20043;-73
2021/12/19 23:28:26;;;;;;;8.07;3.23;;;;;;;;;;10289577;28;20069;-73
2021/12/19 23:33:58;;;;;;;;;;;;;;;;;;10278769;28;20502;-74
2021/12/19 23:39:20;;;;;;;11.97;3.97;;;;;;;;;;10289999;28;19926;-73
2021/12/19 23:49:46;;;;;;;6.13;2.67;;;;;;;;;;10291068;28;20121;-73
2021/12/19 23:54:49;;;;;;;11.50;4.10;;;;;;;;;;10294839;28;20061;-73
2021/12/19 23:59:53;;;;;;;17.60;7.37;;;;;;;;;;10286599;28;20062;-73
